createdAt,value
2023-04-01T00:00:37.511Z,1.20
2023-04-01T00:04:54.763Z,1.10
2023-04-01T00:09:12.063Z,1.08
2023-04-01T00:13:29.624Z,0.93
2023-04-01T00:17:47.089Z,1.52
2023-04-01T00:22:04.533Z,1.08
2023-04-01T00:26:23.107Z,1.33
2023-04-01T00:34:59.962Z,1.33
2023-04-01T00:39:18.047Z,1.10
2023-04-01T00:43:36.482Z,1.38
2023-04-01T00:47:54.449Z,0.88
2023-04-01T00:52:16.461Z,1.20
2023-04-01T00:56:37.877Z,1.33
2023-04-01T01:00:57.207Z,1.23
2023-04-01T01:05:17.024Z,1.00
2023-04-01T01:09:43.734Z,1.20
2023-04-01T01:14:13.271Z,1.20
2023-04-01T01:19:03.852Z,1.40
2023-04-01T01:23:43.792Z,1.17
2023-04-01T01:28:23.372Z,1.33
2023-04-01T01:33:10.641Z,1.20
2023-04-01T01:37:30.438Z,1.52
2023-04-01T01:41:50.435Z,1.23
2023-04-01T01:46:13.054Z,1.50
2023-04-01T01:50:30.772Z,1.25
2023-04-01T01:54:55.565Z,1.33
2023-04-01T01:59:15.144Z,1.30
2023-04-01T02:03:37.044Z,1.25
2023-04-01T02:08:01.708Z,1.45
2023-04-01T02:12:22.464Z,1.40
2023-04-01T02:16:43.488Z,1.80
2023-04-01T02:21:01.664Z,1.20
2023-04-01T02:25:25.105Z,1.40
2023-04-01T02:29:42.817Z,1.83
2023-04-01T02:34:00.229Z,1.42
2023-04-01T02:38:17.834Z,1.40
2023-04-01T02:42:35.467Z,1.15
2023-04-01T02:46:53.888Z,1.00
2023-04-01T02:51:11.238Z,1.50
2023-04-01T02:55:28.601Z,1.33
2023-04-01T02:59:46.087Z,1.25
2023-04-01T03:04:03.586Z,1.55
2023-04-01T03:08:20.820Z,1.42
2023-04-01T03:12:38.248Z,1.20
2023-04-01T03:16:56.003Z,1.35
2023-04-01T03:21:33.597Z,1.03
2023-04-01T03:25:51.359Z,1.23
2023-04-01T03:30:10.745Z,1.17
2023-04-01T03:34:28.224Z,1.23
2023-04-01T03:38:46.358Z,1.15
2023-04-01T03:43:03.995Z,1.27
2023-04-01T03:47:21.506Z,1.13
2023-04-01T03:51:44.010Z,1.10
2023-04-01T03:56:06.588Z,1.20
2023-04-01T04:00:23.967Z,1.50
2023-04-01T04:04:42.393Z,1.10
2023-04-01T04:13:17.103Z,1.10
2023-04-01T04:17:34.408Z,1.10
2023-04-01T04:21:51.878Z,1.00
2023-04-01T04:26:12.323Z,1.00
2023-04-01T04:30:29.535Z,1.05
2023-04-01T04:34:47.109Z,1.10
2023-04-01T04:39:04.463Z,1.13
2023-04-01T04:43:22.152Z,1.00
2023-04-01T04:47:39.465Z,1.30
2023-04-01T04:51:56.752Z,1.38
2023-04-01T04:56:14.288Z,1.30
2023-04-01T05:00:31.748Z,1.02
2023-04-01T05:04:48.919Z,1.30
2023-04-01T05:09:06.179Z,1.10
2023-04-01T05:13:23.742Z,1.13
2023-04-01T05:17:41.076Z,1.33
2023-04-01T05:21:58.381Z,1.27
2023-04-01T05:26:15.847Z,1.30
2023-04-01T05:30:33.175Z,1.08
2023-04-01T05:34:54.539Z,0.93
2023-04-01T05:39:12.243Z,0.82
2023-04-01T05:43:30.773Z,0.90
2023-04-01T05:47:47.988Z,1.33
2023-04-01T05:52:05.523Z,1.23
2023-04-01T05:56:22.759Z,1.10
2023-04-01T06:00:40.056Z,0.80
2023-04-01T06:05:12.974Z,0.90
2023-04-01T06:09:31.338Z,1.02
2023-04-01T06:14:20.301Z,0.77
2023-04-01T06:18:52.044Z,1.00
2023-04-01T06:23:34.217Z,0.90
2023-04-01T06:28:09.804Z,0.80
2023-04-01T06:32:55.476Z,0.80
2023-04-01T06:37:21.783Z,0.93
2023-04-01T06:42:20.343Z,1.15
2023-04-01T06:46:55.473Z,0.90
2023-04-01T06:51:25.391Z,0.80
2023-04-01T06:55:47.150Z,0.70
2023-04-01T07:00:36.830Z,1.33
2023-04-01T07:04:56.909Z,1.00
2023-04-01T07:09:25.977Z,11.85
2023-04-01T07:18:32.287Z,3.30
2023-04-01T07:22:52.913Z,1.25
2023-04-01T07:27:12.580Z,2.35
2023-04-01T07:31:46.849Z,1.27
2023-04-01T07:36:21.655Z,0.95
2023-04-01T07:41:11.098Z,0.90
2023-04-01T07:46:02.745Z,1.20
2023-04-01T07:50:32.511Z,1.27
2023-04-01T07:55:06.554Z,1.27
2023-04-01T07:59:35.224Z,1.00
2023-04-01T08:04:11.063Z,1.70
2023-04-01T08:08:42.331Z,2.20
2023-04-01T08:13:21.566Z,9.55
2023-04-01T08:17:57.698Z,7.10
2023-04-01T08:22:24.616Z,1.00
2023-04-01T08:26:49.422Z,9.25
2023-04-01T08:31:35.547Z,2.75
2023-04-01T08:36:10.662Z,1.05
2023-04-01T08:40:49.325Z,0.60
2023-04-01T08:45:40.498Z,1.10
2023-04-01T08:50:10.994Z,0.65
2023-04-01T08:54:39.894Z,0.50
2023-04-01T08:59:07.361Z,0.52
2023-04-01T09:03:42.940Z,0.60
2023-04-01T09:08:12.708Z,0.50
2023-04-01T09:12:48.874Z,0.60
2023-04-01T09:17:31.251Z,0.70
2023-04-01T09:22:08.805Z,0.50
2023-04-01T09:27:01.513Z,0.60
2023-04-01T09:31:21.600Z,0.55
2023-04-01T09:35:48.764Z,0.60
2023-04-01T09:40:25.396Z,0.80
2023-04-01T09:44:45.933Z,0.47
2023-04-01T09:49:44.934Z,0.30
2023-04-01T09:54:13.291Z,0.70
2023-04-01T09:58:43.979Z,0.60
2023-04-01T10:03:30.569Z,0.60
2023-04-01T10:08:31.237Z,0.70
2023-04-01T10:13:03.890Z,0.50
2023-04-01T10:18:06.460Z,0.50
2023-04-01T10:22:47.958Z,0.60
2023-04-01T10:27:11.393Z,0.68
2023-04-01T10:31:57.228Z,0.80
2023-04-01T10:36:37.794Z,0.50
2023-04-01T10:41:25.875Z,0.50
2023-04-01T10:46:07.435Z,0.40
2023-04-01T10:50:46.683Z,0.38
2023-04-01T10:55:41.532Z,0.40
2023-04-01T11:00:09.520Z,0.30
2023-04-01T11:05:03.876Z,0.60
2023-04-01T11:09:55.081Z,0.57
2023-04-01T11:14:40.233Z,0.70
2023-04-01T11:19:24.594Z,0.50
2023-04-01T11:24:19.816Z,0.43
2023-04-01T11:28:46.329Z,0.40
2023-04-01T11:33:21.956Z,0.43
2023-04-01T11:38:08.316Z,0.60
2023-04-01T11:42:53.015Z,0.40
2023-04-01T11:47:25.606Z,0.45
2023-04-01T11:52:13.476Z,0.40
2023-04-01T11:56:51.305Z,0.60
2023-04-01T12:01:40.303Z,0.55
2023-04-01T12:06:12.611Z,0.50
2023-04-01T12:10:48.346Z,0.50
2023-04-01T12:15:37.969Z,0.32
2023-04-01T12:20:00.205Z,0.40
2023-04-01T12:24:43.367Z,0.60
2023-04-01T12:29:15.435Z,1.00
2023-04-01T12:33:44.245Z,1.98
2023-04-01T12:38:22.434Z,4.10
2023-04-01T12:42:53.165Z,0.82
2023-04-01T12:47:29.121Z,0.60
2023-04-01T12:51:52.200Z,0.70
2023-04-01T12:56:23.097Z,0.57
2023-04-01T13:00:56.570Z,0.50
2023-04-01T13:05:55.568Z,0.70
2023-04-01T13:10:42.037Z,0.65
2023-04-01T13:15:06.418Z,0.50
2023-04-01T13:20:02.056Z,0.50
2023-04-01T13:24:53.243Z,0.60
2023-04-01T13:29:24.280Z,0.52
2023-04-01T13:33:56.048Z,0.40
2023-04-01T13:38:39.828Z,0.50
2023-04-01T13:43:20.121Z,0.40
2023-04-01T13:48:19.586Z,0.60
2023-04-01T13:52:52.211Z,0.80
2023-04-01T13:57:38.538Z,0.80
2023-04-01T14:02:23.558Z,0.80
2023-04-01T14:07:18.428Z,0.75
2023-04-01T14:11:38.885Z,1.10
2023-04-01T14:16:21.961Z,0.60
2023-04-01T14:21:14.694Z,0.95
2023-04-01T14:25:56.832Z,0.50
2023-04-01T14:30:57.216Z,0.55
2023-04-01T14:39:48.402Z,0.50
2023-04-01T14:44:31.955Z,0.57
2023-04-01T14:48:58.401Z,2.40
2023-04-01T14:53:29.993Z,0.43
2023-04-01T14:58:01.426Z,0.40
2023-04-01T15:02:46.911Z,0.40
2023-04-01T15:07:07.583Z,0.40
2023-04-01T15:11:36.011Z,0.40
2023-04-01T15:16:02.918Z,0.30
2023-04-01T15:20:34.079Z,0.50
2023-04-01T15:25:19.191Z,0.50
2023-04-01T15:30:10.537Z,0.40
2023-04-01T15:34:36.866Z,0.50
2023-04-01T15:39:11.875Z,1.20
2023-04-01T15:43:41.185Z,0.50
2023-04-01T15:48:33.977Z,0.40
2023-04-01T15:53:09.299Z,0.30
2023-04-01T15:57:54.101Z,0.70
2023-04-01T16:02:50.164Z,0.60
2023-04-01T16:07:29.149Z,0.80
2023-04-01T16:12:16.191Z,0.60
2023-04-01T16:17:11.533Z,1.02
2023-04-01T16:21:53.237Z,1.00
2023-04-01T16:26:19.864Z,1.00
2023-04-01T16:30:47.993Z,0.90
2023-04-01T16:35:23.054Z,1.77
2023-04-01T16:40:10.357Z,1.17
2023-04-01T16:44:29.022Z,1.40
2023-04-01T16:49:13.187Z,1.10
2023-04-01T16:53:44.614Z,1.08
2023-04-01T16:58:02.849Z,1.02
2023-04-01T17:02:26.792Z,1.15
2023-04-01T17:06:54.759Z,1.33
2023-04-01T17:11:19.845Z,1.50
2023-04-01T17:15:46.390Z,1.58
2023-04-01T17:20:17.554Z,1.40
2023-04-01T17:24:58.924Z,1.20
2023-04-01T17:29:23.503Z,0.73
2023-04-01T17:34:19.773Z,1.00
2023-04-01T17:38:55.048Z,0.95
2023-04-01T17:43:41.440Z,1.92
2023-04-01T17:48:16.806Z,1.38
2023-04-01T17:52:58.685Z,1.60
2023-04-01T17:57:48.710Z,1.55
2023-04-01T18:02:15.380Z,1.75
2023-04-01T18:07:02.890Z,1.73
2023-04-01T18:11:44.935Z,2.08
2023-04-01T18:16:24.921Z,1.23
2023-04-01T18:21:20.218Z,1.88
2023-04-01T18:25:49.103Z,1.70
2023-04-01T18:30:40.465Z,2.13
2023-04-01T18:35:22.951Z,2.30
2023-04-01T18:39:43.396Z,2.08
2023-04-01T18:44:09.319Z,2.20
2023-04-01T18:49:03.558Z,2.97
2023-04-01T18:53:31.680Z,3.00
2023-04-01T18:57:55.720Z,2.20
2023-04-01T19:02:49.842Z,2.03
2023-04-01T19:07:37.494Z,1.92
2023-04-01T19:12:07.401Z,2.15
2023-04-01T19:16:47.638Z,2.10
2023-04-01T19:21:28.973Z,2.72
2023-04-01T19:25:54.660Z,6.80
2023-04-01T19:30:25.717Z,6.05
2023-04-01T19:34:48.786Z,4.70
2023-04-01T19:39:28.749Z,4.97
2023-04-01T19:44:06.876Z,4.55
2023-04-01T19:48:51.637Z,4.70
2023-04-01T19:53:54.154Z,5.18
2023-04-01T19:58:20.585Z,4.40
2023-04-01T20:02:55.111Z,4.78
2023-04-01T20:07:42.170Z,5.45
2023-04-01T20:12:09.649Z,6.40
2023-04-01T20:16:51.574Z,5.93
2023-04-01T20:21:30.015Z,5.70
2023-04-01T20:26:05.770Z,4.60
2023-04-01T20:30:37.985Z,5.05
2023-04-01T20:35:07.893Z,6.45
2023-04-01T20:39:36.362Z,6.20
2023-04-01T20:44:12.652Z,7.07
2023-04-01T20:48:36.190Z,9.40
2023-04-01T20:53:18.029Z,9.63
2023-04-01T20:57:46.078Z,5.85
2023-04-01T21:02:21.319Z,6.35
2023-04-01T21:06:47.974Z,3.70
2023-04-01T21:11:24.962Z,4.00
2023-04-01T21:16:15.154Z,3.15
2023-04-01T21:21:07.517Z,3.42
2023-04-01T21:25:24.881Z,2.88
2023-04-01T21:30:11.320Z,3.65
2023-04-01T21:34:45.782Z,2.03
2023-04-01T21:39:15.844Z,2.35
2023-04-01T21:43:35.876Z,2.20
2023-04-01T21:48:19.020Z,2.60
2023-04-01T21:52:42.395Z,3.60
2023-04-01T21:57:44.815Z,3.15
2023-04-01T22:02:27.066Z,2.50
2023-04-01T22:07:09.301Z,2.17
2023-04-01T22:11:41.369Z,2.03
2023-04-01T22:16:16.269Z,1.95
2023-04-01T22:21:06.368Z,3.10
2023-04-01T22:25:53.246Z,2.20
2023-04-01T22:30:22.423Z,2.10
2023-04-01T22:35:02.257Z,2.40
2023-04-01T22:39:51.282Z,3.10
2023-04-01T22:44:41.613Z,3.70
2023-04-01T22:49:03.335Z,4.78
2023-04-01T22:53:37.643Z,5.80
2023-04-01T22:58:08.790Z,6.55
2023-04-01T23:02:38.323Z,4.57
2023-04-01T23:07:01.307Z,3.95
2023-04-01T23:11:31.065Z,3.75
2023-04-01T23:15:49.080Z,3.53
2023-04-01T23:20:34.985Z,4.13
2023-04-01T23:25:16.174Z,5.03
2023-04-01T23:29:37.717Z,4.35
2023-04-01T23:34:01.085Z,4.90
2023-04-01T23:38:21.256Z,5.47
2023-04-01T23:42:43.046Z,4.97
2023-04-01T23:47:01.775Z,4.85
2023-04-01T23:51:21.714Z,4.60
2023-04-01T23:55:42.493Z,4.47
